Time;durP1;ratioP1;P1;durP2;ratioP2;P2;SDS_P1;SDS_P2;PMS_P1;PMS_P2;Temp;Humidity;BMP_temperature;BMP_pressure;BME280_temperature;BME280_humidity;BME280_pressure;Samples;Min_cycle;Max_cycle;Signal;HPM_P1;HPM_P2
2022/03/03 00:00:22;;;;;;;;;;;5.40;69.90;;;;;;2379518;56;20149;-77
2022/03/03 00:02:48;;;;;;;;;;;5.40;69.90;;;;;;2379776;56;20139;-77
2022/03/03 00:05:15;;;;;;;;;;;5.30;70.20;;;;;;2380286;56;20113;-77
2022/03/03 00:07:41;;;;;;;;;;;5.30;70.40;;;;;;2378780;56;20372;-77
2022/03/03 00:10:09;;;;;;;;;;;5.30;70.30;;;;;;2379907;56;20049;-77
2022/03/03 00:12:36;;;;;;;;;;;5.20;70.30;;;;;;2379945;56;20069;-77
2022/03/03 00:15:02;;;;;;;;;;;5.20;71.10;;;;;;2379956;56;20327;-78
2022/03/03 00:17:29;;;;;;;;;;;5.20;70.50;;;;;;2380081;56;20088;-76
2022/03/03 00:19:55;;;;;;;;;;;5.20;70.60;;;;;;2457294;52;20097;-77
2022/03/03 00:22:22;;;;;;;;;;;5.10;70.30;;;;;;2379288;56;20081;-77
2022/03/03 00:24:49;;;;;;;;;;;5.10;70.40;;;;;;2379692;56;20057;-77
2022/03/03 00:27:15;;;;;;;;;;;5.00;70.40;;;;;;2380007;56;20097;-77
2022/03/03 00:29:42;;;;;;;;;;;5.00;70.60;;;;;;2444880;52;20133;-77
2022/03/03 00:32:09;;;;;;;;;;;4.90;70.70;;;;;;2379741;56;20081;-77
2022/03/03 00:34:35;;;;;;;;;;;5.00;70.70;;;;;;2380257;56;20061;-77
2022/03/03 00:37:02;;;;;;;;;;;4.90;70.60;;;;;;2380066;52;20140;-76
2022/03/03 00:39:28;;;;;;;;;;;4.90;70.70;;;;;;2412613;52;20097;-76
2022/03/03 00:41:55;;;;;;;;;;;4.90;71.40;;;;;;2378497;56;20081;-76
2022/03/03 00:44:21;;;;;;;;;;;4.90;72.20;;;;;;2379536;56;20134;-77
2022/03/03 00:46:48;;;;;;;;;;;4.90;72.10;;;;;;2379590;56;20308;-77
2022/03/03 00:49:14;;;;;;;;;;;4.90;71.60;;;;;;2378999;56;20130;-77
2022/03/03 00:51:41;;;;;;;;;;;4.90;71.20;;;;;;2379170;56;20228;-77
2022/03/03 00:54:07;;;;;;;;;;;4.90;71.00;;;;;;2379320;56;20082;-77
2022/03/03 00:56:34;;;;;;;;;;;4.80;70.90;;;;;;2379615;56;20133;-77
2022/03/03 00:59:00;;;;;;;;;;;4.90;70.90;;;;;;2379443;56;20065;-78
2022/03/03 01:01:27;;;;;;;;;;;4.90;70.80;;;;;;2379434;56;20175;-77
2022/03/03 01:03:53;;;;;;;;;;;4.80;70.50;;;;;;2379711;56;20171;-77
2022/03/03 01:06:20;;;;;;;;;;;4.80;70.50;;;;;;2379938;56;20085;-77
2022/03/03 01:08:46;;;;;;;;;;;4.90;70.60;;;;;;2379490;56;20122;-77
2022/03/03 01:11:13;;;;;;;;;;;4.80;70.30;;;;;;2379930;56;20103;-77
2022/03/03 01:13:39;;;;;;;;;;;4.80;70.40;;;;;;2379700;56;20312;-76
2022/03/03 01:16:06;;;;;;;;;;;4.80;70.50;;;;;;2379976;56;20316;-76
2022/03/03 01:18:32;;;;;;;;;;;4.80;70.50;;;;;;2377876;56;20145;-78
2022/03/03 01:20:59;;;;;;;;;;;4.80;70.40;;;;;;2379358;56;20126;-77
2022/03/03 01:23:26;;;;;;;;;;;4.80;70.40;;;;;;2379821;56;20121;-77
2022/03/03 01:25:52;;;;;;;;;;;4.80;70.50;;;;;;2379885;56;20105;-77
2022/03/03 01:28:19;;;;;;;;;;;4.80;70.50;;;;;;2379637;56;20164;-77
2022/03/03 01:30:45;;;;;;;;;;;4.80;70.50;;;;;;2379717;56;20371;-76
2022/03/03 01:33:12;;;;;;;;;;;4.80;70.40;;;;;;2379652;56;20077;-77
2022/03/03 01:35:39;;;;;;;;;;;4.80;70.20;;;;;;2379593;56;20061;-76
2022/03/03 01:38:05;;;;;;;;;;;4.80;70.20;;;;;;2379858;56;20081;-77
2022/03/03 01:40:32;;;;;;;;;;;4.70;70.40;;;;;;2379577;56;20128;-76
2022/03/03 01:42:58;;;;;;;;;;;4.70;70.30;;;;;;2380154;56;20180;-76
2022/03/03 01:45:25;;;;;;;;;;;4.70;70.30;;;;;;2437569;52;20066;-76
2022/03/03 01:47:51;;;;;;;;;;;4.60;70.20;;;;;;2380086;56;20113;-76
2022/03/03 01:50:18;;;;;;;;;;;4.60;70.30;;;;;;2379557;56;20053;-76
2022/03/03 01:52:44;;;;;;;;;;;4.60;70.50;;;;;;2380326;56;20121;-75
2022/03/03 01:55:11;;;;;;;;;;;4.60;70.70;;;;;;2379824;56;20073;-76
2022/03/03 01:57:38;;;;;;;;;;;4.60;70.70;;;;;;2379221;56;20086;-76
2022/03/03 02:00:05;;;;;;;;;;;4.60;70.70;;;;;;2379673;56;20069;-76
2022/03/03 02:02:32;;;;;;;;;;;4.60;70.80;;;;;;2379943;56;20368;-76
2022/03/03 02:04:58;;;;;;;;;;;4.60;70.80;;;;;;2379763;56;20078;-76
2022/03/03 02:07:25;;;;;;;;;;;4.60;70.90;;;;;;2379824;56;20057;-76
2022/03/03 02:09:51;;;;;;;;;;;4.60;70.80;;;;;;2379843;56;20116;-76
2022/03/03 02:12:18;;;;;;;;;;;4.60;70.70;;;;;;2380130;56;20081;-76
2022/03/03 02:14:45;;;;;;;;;;;4.60;70.70;;;;;;2378772;56;20355;-76
2022/03/03 02:17:12;;;;;;;;;;;4.60;70.90;;;;;;2380116;56;20093;-76
2022/03/03 02:19:38;;;;;;;;;;;4.70;71.20;;;;;;2379682;56;20125;-75
2022/03/03 02:22:05;;;;;;;;;;;4.70;71.20;;;;;;2380003;56;20085;-77
2022/03/03 02:24:31;;;;;;;;;;;4.70;70.80;;;;;;2379704;56;20321;-76
2022/03/03 02:26:59;;;;;;;;;;;4.70;70.60;;;;;;2379382;56;20049;-76
2022/03/03 02:29:26;;;;;;;;;;;4.80;70.90;;;;;;2379508;56;20364;-76
2022/03/03 02:31:53;;;;;;;;;;;4.80;70.90;;;;;;2379448;56;20125;-75
2022/03/03 02:34:19;;;;;;;;;;;4.80;70.80;;;;;;2380121;56;20337;-76
2022/03/03 02:36:46;;;;;;;;;;;4.90;70.80;;;;;;2379706;56;20082;-76
2022/03/03 02:39:12;;;;;;;;;;;4.90;70.40;;;;;;2379473;56;20081;-76
2022/03/03 02:41:38;;;;;;;;;;;4.90;69.60;;;;;;2379667;56;20073;-76
2022/03/03 02:44:05;;;;;;;;;;;4.90;69.50;;;;;;2379861;56;20106;-76
2022/03/03 02:46:32;;;;;;;;;;;4.90;69.50;;;;;;2379715;56;20125;-76
2022/03/03 02:48:58;;;;;;;;;;;4.80;69.60;;;;;;2379342;56;20073;-75
2022/03/03 02:51:25;;;;;;;;;;;4.80;69.70;;;;;;2379657;56;20081;-76
2022/03/03 02:53:51;;;;;;;;;;;4.90;70.00;;;;;;2380023;56;20073;-75
2022/03/03 02:56:17;;;;;;;;;;;4.90;70.00;;;;;;2379806;56;20057;-76
2022/03/03 02:58:44;;;;;;;;;;;4.80;69.60;;;;;;2379504;56;20335;-75
2022/03/03 03:01:11;;;;;;;;;;;4.80;69.70;;;;;;2514679;52;20130;-75
2022/03/03 03:03:38;;;;;;;;;;;4.70;69.90;;;;;;2379906;56;20077;-76
2022/03/03 03:06:04;;;;;;;;;;;4.70;70.00;;;;;;2379627;56;20129;-76
2022/03/03 03:08:31;;;;;;;;;;;4.70;70.00;;;;;;2379762;56;20126;-76
2022/03/03 03:10:57;;;;;;;;;;;4.60;70.00;;;;;;2379017;56;20078;-75
2022/03/03 03:13:24;;;;;;;;;;;4.60;70.20;;;;;;2418565;54;20124;-73
2022/03/03 03:15:50;;;;;;;;;;;4.60;70.30;;;;;;2295690;58;20116;-75
2022/03/03 03:18:18;;;;;;;;;;;4.70;70.20;;;;;;2531863;55;20071;-75
2022/03/03 03:20:45;;;;;;;;;;;4.70;69.90;;;;;;2302818;58;20083;-75
2022/03/03 03:23:12;;;;;;;;;;;4.60;69.90;;;;;;2321950;58;20075;-75
2022/03/03 03:25:39;;;;;;;;;;;4.60;69.90;;;;;;2322436;58;20087;-75
2022/03/03 03:28:06;;;;;;;;;;;4.60;69.90;;;;;;2563759;54;20260;-73
2022/03/03 03:30:32;;;;;;;;;;;4.60;70.10;;;;;;2322181;58;20179;-73
2022/03/03 03:32:59;;;;;;;;;;;4.60;70.30;;;;;;2321530;58;20159;-73
2022/03/03 03:35:26;;;;;;;;;;;4.50;70.20;;;;;;2322326;58;20120;-76
2022/03/03 03:37:52;;;;;;;;;;;4.60;70.50;;;;;;2322361;58;20126;-73
2022/03/03 03:40:19;;;;;;;;;;;4.60;70.50;;;;;;2322046;58;20080;-73
2022/03/03 03:42:45;;;;;;;;;;;4.60;70.40;;;;;;2322422;58;20083;-73
2022/03/03 03:45:12;;;;;;;;;;;4.60;70.40;;;;;;2322653;58;20358;-73
2022/03/03 03:47:39;;;;;;;;;;;4.60;70.50;;;;;;2322265;58;20171;-73
2022/03/03 03:50:08;;;;;;;;;;;4.60;70.60;;;;;;2320886;58;20111;-72
2022/03/03 03:52:35;;;;;;;;;;;4.60;70.00;;;;;;2322442;58;20075;-73
2022/03/03 03:55:02;;;;;;;;;;;4.50;69.80;;;;;;2322636;58;20071;-73
2022/03/03 03:57:28;;;;;;;;;;;4.50;69.90;;;;;;2322296;58;20079;-73
2022/03/03 03:59:54;;;;;;;;;;;4.50;69.80;;;;;;2321939;58;20310;-73
2022/03/03 04:02:21;;;;;;;;;;;4.50;69.10;;;;;;2322601;58;20122;-73
2022/03/03 04:04:48;;;;;;;;;;;4.50;69.30;;;;;;2321988;58;20111;-73
2022/03/03 04:07:14;;;;;;;;;;;4.50;69.50;;;;;;2562880;54;20094;-73
2022/03/03 04:09:41;;;;;;;;;;;4.50;69.60;;;;;;2322301;58;20242;-73
2022/03/03 04:12:09;;;;;;;;;;;4.50;69.50;;;;;;2322337;58;20114;-73
2022/03/03 04:14:36;;;;;;;;;;;4.50;69.10;;;;;;2322045;58;20079;-73
2022/03/03 04:17:03;;;;;;;;;;;4.50;69.10;;;;;;2322046;58;20112;-73
2022/03/03 04:19:29;;;;;;;;;;;4.50;69.00;;;;;;2321969;58;20086;-73
2022/03/03 04:21:56;;;;;;;;;;;4.50;68.80;;;;;;2322400;58;20076;-73
2022/03/03 04:24:22;;;;;;;;;;;4.40;68.80;;;;;;2320854;58;20310;-73
2022/03/03 04:26:49;;;;;;;;;;;4.40;69.00;;;;;;2322060;58;20103;-73
2022/03/03 04:29:15;;;;;;;;;;;4.40;69.40;;;;;;2321903;58;20093;-73
2022/03/03 04:31:42;;;;;;;;;;;4.40;69.60;;;;;;2322336;58;20114;-73
2022/03/03 04:34:08;;;;;;;;;;;4.40;69.60;;;;;;2322772;58;20083;-73
2022/03/03 04:39:38;;;;;;;;;;;4.30;68.80;;;;;;2512149;54;20047;-73
2022/03/03 04:42:05;;;;;;;;;;;4.40;69.30;;;;;;2322248;58;20095;-73
2022/03/03 04:44:31;;;;;;;;;;;4.50;69.00;;;;;;2322836;58;20071;-74
2022/03/03 04:46:58;;;;;;;;;;;4.40;68.90;;;;;;2322664;58;20127;-73
2022/03/03 04:49:24;;;;;;;;;;;4.40;69.20;;;;;;2322043;58;20142;-73
2022/03/03 04:51:51;;;;;;;;;;;4.40;69.40;;;;;;2322340;58;20075;-73
2022/03/03 04:54:18;;;;;;;;;;;4.40;69.80;;;;;;2322863;58;20135;-74
2022/03/03 04:56:45;;;;;;;;;;;4.40;69.80;;;;;;2322779;58;20131;-73
2022/03/03 04:59:12;;;;;;;;;;;4.40;69.70;;;;;;2322543;58;20544;-73
2022/03/03 05:01:38;;;;;;;;;;;4.50;69.90;;;;;;2322418;58;20306;-74
2022/03/03 05:04:05;;;;;;;;;;;4.50;69.70;;;;;;2322864;58;20084;-73
2022/03/03 05:06:31;;;;;;;;;;;4.50;69.70;;;;;;2322720;58;20162;-73
2022/03/03 05:08:58;;;;;;;;;;;4.50;69.60;;;;;;2322518;58;20063;-73
2022/03/03 05:11:24;;;;;;;;;;;4.60;69.50;;;;;;2322652;58;20143;-74
2022/03/03 05:13:51;;;;;;;;;;;4.50;69.50;;;;;;2564250;54;20143;-74
2022/03/03 05:16:17;;;;;;;;;;;4.60;69.20;;;;;;2322866;58;20363;-73
2022/03/03 05:18:44;;;;;;;;;;;4.50;69.10;;;;;;2322654;58;20150;-73
2022/03/03 05:21:11;;;;;;;;;;;4.50;70.40;;;;;;2322905;58;20068;-74
2022/03/03 05:23:38;;;;;;;;;;;4.50;70.40;;;;;;2564224;54;20067;-74
2022/03/03 05:26:04;;;;;;;;;;;4.50;69.40;;;;;;2562785;54;20123;-74
2022/03/03 05:28:31;;;;;;;;;;;4.50;69.50;;;;;;2321355;58;20155;-74
2022/03/03 05:30:57;;;;;;;;;;;4.60;69.60;;;;;;2321114;58;20075;-74
2022/03/03 05:33:24;;;;;;;;;;;4.50;69.20;;;;;;2313949;54;72375;-80
2022/03/03 05:35:57;;;;;;;;;;;4.50;69.30;;;;;;2297894;58;20410;-81
2022/03/03 05:38:24;;;;;;;;;;;4.50;69.30;;;;;;2533259;54;20060;-80
2022/03/03 05:40:51;;;;;;;;;;;4.50;68.60;;;;;;2297756;58;20112;-82
2022/03/03 05:43:17;;;;;;;;;;;4.40;68.50;;;;;;2297662;58;20127;-81
2022/03/03 05:45:44;;;;;;;;;;;4.30;68.70;;;;;;2532382;55;20128;-80
2022/03/03 05:48:10;;;;;;;;;;;4.20;69.10;;;;;;2296710;58;20263;-81
2022/03/03 05:50:37;;;;;;;;;;;4.20;69.20;;;;;;2296688;58;20387;-81
2022/03/03 05:53:03;;;;;;;;;;;4.20;69.40;;;;;;2532825;55;20068;-79
2022/03/03 05:55:31;;;;;;;;;;;4.20;69.50;;;;;;2532280;55;20317;-81
2022/03/03 05:57:59;;;;;;;;;;;4.20;69.30;;;;;;2296766;58;20144;-82
2022/03/03 06:00:26;;;;;;;;;;;4.10;69.10;;;;;;2531110;55;20068;-81
2022/03/03 06:02:54;;;;;;;;;;;4.10;69.00;;;;;;2297074;58;20120;-81
2022/03/03 06:05:22;;;;;;;;;;;4.00;70.00;;;;;;2296893;58;20148;-80
2022/03/03 06:07:50;;;;;;;;;;;3.90;69.40;;;;;;2296959;58;20076;-80
2022/03/03 06:10:19;;;;;;;;;;;3.90;69.60;;;;;;2296699;58;20129;-81
2022/03/03 06:12:47;;;;;;;;;;;3.90;69.80;;;;;;2296442;58;20076;-75
2022/03/03 06:15:14;;;;;;;;;;;3.80;70.00;;;;;;2295559;58;20072;-75
2022/03/03 06:17:42;;;;;;;;;;;3.80;70.20;;;;;;2295873;58;20400;-77
2022/03/03 06:20:10;;;;;;;;;;;3.90;70.50;;;;;;2531953;55;20735;-80
2022/03/03 06:22:36;;;;;;;;;;;3.90;70.50;;;;;;2532472;55;20045;-79
2022/03/03 06:25:05;;;;;;;;;;;3.80;70.30;;;;;;2298596;58;20122;-81
2022/03/03 06:27:32;;;;;;;;;;;3.80;70.20;;;;;;2531950;55;20084;-81
2022/03/03 06:29:59;;;;;;;;;;;3.80;70.30;;;;;;2531977;55;20132;-80
2022/03/03 06:32:25;;;;;;;;;;;3.80;70.40;;;;;;2532069;55;20068;-82
2022/03/03 06:34:52;;;;;;;;;;;3.80;70.60;;;;;;2296520;58;20089;-81
2022/03/03 06:37:18;;;;;;;;;;;3.90;70.60;;;;;;2296823;58;20061;-79
2022/03/03 06:39:44;;;;;;;;;;;3.80;70.50;;;;;;2532053;55;20128;-80
2022/03/03 06:42:11;;;;;;;;;;;3.80;70.50;;;;;;2296608;58;20072;-81
2022/03/03 06:44:38;;;;;;;;;;;3.80;70.60;;;;;;2532444;55;20052;-80
2022/03/03 06:47:05;;;;;;;;;;;3.80;70.70;;;;;;2532336;55;20120;-82
2022/03/03 06:49:31;;;;;;;;;;;3.80;70.80;;;;;;2532074;55;20084;-80
2022/03/03 06:51:58;;;;;;;;;;;3.90;71.50;;;;;;2296982;58;20145;-79
2022/03/03 06:54:24;;;;;;;;;;;3.90;70.80;;;;;;2296850;58;20057;-81
2022/03/03 06:56:52;;;;;;;;;;;3.90;70.80;;;;;;2296731;58;20116;-82
2022/03/03 06:59:19;;;;;;;;;;;3.90;70.70;;;;;;2532388;55;20118;-79
2022/03/03 07:01:48;;;;;;;;;;;3.90;70.90;;;;;;2532848;55;20065;-82
2022/03/03 07:04:15;;;;;;;;;;;3.90;71.00;;;;;;2536181;55;20073;-81
2022/03/03 07:06:41;;;;;;;;;;;3.90;70.90;;;;;;2536745;55;20076;-80
2022/03/03 07:09:08;;;;;;;;;;;3.90;71.80;;;;;;2298152;58;20297;-83
2022/03/03 07:11:36;;;;;;;;;;;3.90;71.40;;;;;;2297734;58;20152;-80
2022/03/03 07:14:03;;;;;;;;;;;3.90;71.50;;;;;;2296257;58;20072;-80
2022/03/03 07:16:37;;;;;;;;;;;4.00;71.50;;;;;;2296361;58;20161;-80
2022/03/03 07:19:04;;;;;;;;;;;4.00;71.40;;;;;;2296099;58;20091;-81
2022/03/03 07:21:38;;;;;;;;;;;4.00;71.50;;;;;;2299634;58;20108;-82
2022/03/03 07:24:16;;;;;;;;;;;4.10;71.30;;;;;;2536545;55;20128;-80
2022/03/03 07:26:46;;;;;;;;;;;4.10;71.10;;;;;;2536512;55;20084;-80
2022/03/03 07:29:15;;;;;;;;;;;4.20;71.10;;;;;;2532279;55;20077;-80
2022/03/03 07:31:55;;;;;;;;;;;4.20;70.20;;;;;;2295779;58;20147;-81
2022/03/03 07:34:26;;;;;;;;;;;4.20;71.60;;;;;;2295925;58;20132;-80
2022/03/03 07:36:56;;;;;;;;;;;4.20;71.00;;;;;;2296206;58;20084;-80
2022/03/03 07:39:23;;;;;;;;;;;4.20;71.20;;;;;;2531330;55;20368;-80
2022/03/03 07:41:49;;;;;;;;;;;4.30;71.50;;;;;;2296164;58;20056;-80
2022/03/03 07:44:16;;;;;;;;;;;4.30;71.80;;;;;;2296062;58;20084;-82
2022/03/03 07:46:42;;;;;;;;;;;4.30;71.70;;;;;;2296136;58;20088;-80
2022/03/03 07:49:10;;;;;;;;;;;4.40;71.50;;;;;;2295579;58;20155;-81
2022/03/03 07:51:36;;;;;;;;;;;4.30;71.60;;;;;;2530871;55;20143;-82
2022/03/03 07:54:03;;;;;;;;;;;4.40;71.70;;;;;;2531231;55;20065;-80
2022/03/03 07:56:35;;;;;;;;;;;4.40;71.90;;;;;;2296126;58;20337;-79
2022/03/03 07:59:03;;;;;;;;;;;4.50;72.00;;;;;;2531314;55;20270;-82
2022/03/03 08:01:30;;;;;;;;;;;4.50;71.90;;;;;;2296001;58;20081;-81
2022/03/03 08:03:56;;;;;;;;;;;4.60;71.90;;;;;;2295938;58;20143;-80
2022/03/03 08:06:23;;;;;;;;;;;4.50;71.80;;;;;;2531683;55;20166;-79
2022/03/03 08:08:52;;;;;;;;;;;4.60;71.80;;;;;;2531494;55;20153;-79
2022/03/03 08:11:20;;;;;;;;;;;4.60;71.80;;;;;;2531781;55;20064;-79
2022/03/03 08:13:50;;;;;;;;;;;4.60;71.40;;;;;;2531440;55;20333;-80
2022/03/03 08:16:17;;;;;;;;;;;4.60;71.40;;;;;;2531694;55;20084;-80
2022/03/03 08:18:46;;;;;;;;;;;4.60;71.40;;;;;;2295654;58;20336;-78
2022/03/03 08:21:13;;;;;;;;;;;4.60;71.60;;;;;;2531820;55;20488;-81
2022/03/03 08:23:40;;;;;;;;;;;4.70;71.70;;;;;;2295513;58;20144;-79
2022/03/03 08:26:06;;;;;;;;;;;4.70;71.70;;;;;;2295788;58;20072;-81
2022/03/03 08:28:32;;;;;;;;;;;4.80;71.70;;;;;;2295808;58;20064;-79
2022/03/03 08:31:00;;;;;;;;;;;4.80;71.70;;;;;;2295322;58;20373;-82
2022/03/03 08:33:31;;;;;;;;;;;4.90;71.80;;;;;;2531490;55;20071;-80
2022/03/03 08:36:00;;;;;;;;;;;4.90;71.80;;;;;;2531542;55;20088;-79
2022/03/03 08:38:32;;;;;;;;;;;4.90;71.80;;;;;;2531678;55;20373;-81
2022/03/03 08:40:59;;;;;;;;;;;5.00;71.70;;;;;;2295438;58;20160;-80
2022/03/03 08:43:26;;;;;;;;;;;5.00;72.40;;;;;;2294534;58;20065;-79
2022/03/03 08:45:53;;;;;;;;;;;5.00;71.40;;;;;;2298217;58;20394;-81
2022/03/03 08:48:24;;;;;;;;;;;5.00;71.80;;;;;;2535940;55;20096;-80
2022/03/03 08:50:51;;;;;;;;;;;4.90;72.00;;;;;;2299609;58;20064;-80
2022/03/03 08:53:17;;;;;;;;;;;4.90;72.30;;;;;;2299916;58;20274;-82
2022/03/03 08:55:44;;;;;;;;;;;4.90;72.60;;;;;;2295936;58;20088;-81
2022/03/03 08:58:12;;;;;;;;;;;5.00;72.70;;;;;;2296206;58;20072;-80
2022/03/03 09:00:39;;;;;;;;;;;5.00;72.80;;;;;;2530812;55;20250;-83
2022/03/03 09:03:05;;;;;;;;;;;5.00;73.00;;;;;;2531786;55;20128;-80
2022/03/03 09:05:32;;;;;;;;;;;5.00;73.00;;;;;;2296072;58;20117;-79
2022/03/03 09:07:58;;;;;;;;;;;5.10;73.30;;;;;;2532093;55;20088;-80
2022/03/03 09:10:25;;;;;;;;;;;5.10;73.80;;;;;;2531366;55;20579;-80
2022/03/03 09:15:30;;;;;;;;;;;5.20;73.70;;;;;;2301174;58;20182;-72
2022/03/03 09:17:57;;;;;;;;;;;5.20;73.80;;;;;;2304625;58;20107;-72
2022/03/03 09:20:23;;;;;;;;;;;5.30;73.90;;;;;;2307571;58;20334;-73
2022/03/03 09:22:51;;;;;;;;;;;5.30;73.90;;;;;;2331218;58;20389;-73
2022/03/03 09:25:17;;;;;;;;;;;5.40;74.00;;;;;;2330951;58;20129;-73
2022/03/03 09:27:44;;;;;;;;;;;5.40;73.90;;;;;;2330992;58;20113;-73
2022/03/03 09:30:11;;;;;;;;;;;5.40;73.80;;;;;;2330360;58;20106;-73
2022/03/03 09:32:38;;;;;;;;;;;5.40;73.70;;;;;;2330986;58;20070;-72
2022/03/03 09:35:05;;;;;;;;;;;5.50;73.80;;;;;;2331145;58;20125;-72
2022/03/03 09:37:32;;;;;;;;;;;5.50;74.00;;;;;;2331166;58;20255;-72
2022/03/03 09:39:58;;;;;;;;;;;5.50;73.60;;;;;;2330671;58;20070;-73
2022/03/03 09:42:31;;;;;;;;;;;5.50;73.60;;;;;;2330931;58;20074;-73
2022/03/03 09:44:58;;;;;;;;;;;5.50;73.50;;;;;;2331098;58;20392;-72
2022/03/03 09:47:25;;;;;;;;;;;5.50;73.40;;;;;;2330768;58;20069;-72
2022/03/03 09:49:51;;;;;;;;;;;5.50;73.50;;;;;;2330701;58;20133;-72
2022/03/03 09:52:19;;;;;;;;;;;5.50;74.00;;;;;;2331193;58;20058;-72
2022/03/03 09:54:48;;;;;;;;;;;5.60;74.00;;;;;;2330923;58;20066;-73
2022/03/03 09:57:15;;;;;;;;;;;5.60;74.10;;;;;;2574339;54;20074;-73
2022/03/03 09:59:42;;;;;;;;;;;5.60;74.20;;;;;;2330910;58;20070;-73
2022/03/03 10:02:09;;;;;;;;;;;5.70;75.20;;;;;;2331079;58;20129;-73
2022/03/03 10:04:35;;;;;;;;;;;5.70;74.40;;;;;;2330295;58;20082;-72
2022/03/03 10:07:05;;;;;;;;;;;5.70;74.20;;;;;;2331059;58;20399;-72
2022/03/03 10:09:32;;;;;;;;;;;5.70;74.20;;;;;;2330102;58;20121;-72
2022/03/03 10:11:59;;;;;;;;;;;5.70;74.00;;;;;;2330998;58;20089;-72
2022/03/03 10:14:26;;;;;;;;;;;5.80;74.60;;;;;;2331194;58;20129;-72
2022/03/03 10:16:53;;;;;;;;;;;5.80;73.70;;;;;;2331003;58;20297;-72
2022/03/03 10:19:19;;;;;;;;;;;5.80;73.60;;;;;;2330105;58;20114;-73
2022/03/03 10:21:46;;;;;;;;;;;5.80;73.60;;;;;;2574006;53;20050;-72
2022/03/03 10:24:16;;;;;;;;;;;5.80;73.80;;;;;;2574425;54;20082;-72
2022/03/03 10:26:44;;;;;;;;;;;5.90;73.60;;;;;;2331086;58;20082;-72
2022/03/03 10:29:18;;;;;;;;;;;5.90;73.50;;;;;;2330655;58;20077;-72
2022/03/03 10:31:45;;;;;;;;;;;5.90;73.30;;;;;;2331164;58;20133;-72
2022/03/03 10:34:15;;;;;;;;;;;5.90;73.30;;;;;;2330958;58;20070;-72
2022/03/03 10:36:42;;;;;;;;;;;6.00;73.60;;;;;;2330633;58;20094;-72
2022/03/03 10:39:08;;;;;;;;;;;6.00;73.80;;;;;;2330938;58;20050;-72
2022/03/03 10:41:36;;;;;;;;;;;6.00;73.80;;;;;;2330890;58;20109;-73
2022/03/03 10:44:04;;;;;;;;;;;6.00;73.90;;;;;;2331003;58;20118;-73
2022/03/03 10:46:31;;;;;;;;;;;6.00;74.00;;;;;;2574310;54;20110;-72
2022/03/03 10:48:58;;;;;;;;;;;6.00;74.20;;;;;;2330870;58;20186;-72
2022/03/03 10:51:25;;;;;;;;;;;6.10;74.10;;;;;;2331010;58;20173;-73
2022/03/03 10:53:56;;;;;;;;;;;6.20;74.00;;;;;;2330536;58;20073;-73
2022/03/03 10:56:22;;;;;;;;;;;6.20;74.00;;;;;;2331182;58;20081;-72
2022/03/03 10:58:52;;;;;;;;;;;6.30;73.70;;;;;;2330801;58;20074;-72
2022/03/03 11:01:20;;;;;;;;;;;6.30;73.80;;;;;;2330980;58;20101;-73
2022/03/03 11:03:49;;;;;;;;;;;6.40;73.80;;;;;;2330014;58;20066;-73
2022/03/03 11:06:17;;;;;;;;;;;6.40;73.80;;;;;;2331026;58;20078;-73
2022/03/03 11:08:43;;;;;;;;;;;6.50;74.70;;;;;;2330894;58;20332;-71
2022/03/03 11:11:10;;;;;;;;;;;6.60;73.90;;;;;;2331010;57;20133;-73
2022/03/03 11:13:38;;;;;;;;;;;6.70;74.00;;;;;;2330506;58;20121;-73
2022/03/03 11:16:05;;;;;;;;;;;6.70;73.60;;;;;;2330890;58;20062;-73
2022/03/03 11:18:32;;;;;;;;;;;6.80;73.10;;;;;;2330942;58;20411;-73
2022/03/03 11:20:58;;;;;;;;;;;6.80;73.00;;;;;;2330180;58;20066;-72
2022/03/03 11:23:25;;;;;;;;;;;6.80;73.00;;;;;;2329938;58;20304;-73
2022/03/03 11:25:52;;;;;;;;;;;6.90;73.20;;;;;;2330746;58;20114;-73
2022/03/03 11:28:19;;;;;;;;;;;6.90;73.20;;;;;;2330871;58;20078;-72
2022/03/03 11:30:46;;;;;;;;;;;7.00;73.10;;;;;;2330820;58;20093;-73
2022/03/03 11:33:21;;;;;;;;;;;7.10;73.10;;;;;;2331090;58;20074;-73
2022/03/03 11:35:48;;;;;;;;;;;7.10;73.70;;;;;;2331121;58;20125;-73
2022/03/03 11:38:14;;;;;;;;;;;7.20;72.80;;;;;;2331019;58;20058;-73
2022/03/03 11:40:50;;;;;;;;;;;7.20;72.00;;;;;;2330150;58;20082;-72
2022/03/03 11:43:17;;;;;;;;;;;7.30;72.90;;;;;;2330987;58;20173;-73
2022/03/03 11:45:49;;;;;;;;;;;7.30;72.10;;;;;;2330935;58;20129;-72
2022/03/03 11:48:16;;;;;;;;;;;7.40;72.30;;;;;;2331085;58;20074;-72
2022/03/03 11:50:42;;;;;;;;;;;7.40;72.20;;;;;;2330641;58;20101;-72
2022/03/03 11:53:19;;;;;;;;;;;7.50;72.20;;;;;;2330941;58;20110;-73
2022/03/03 11:56:04;;;;;;;;;;;7.60;72.10;;;;;;2573382;54;20106;-72
2022/03/03 11:58:31;;;;;;;;;;;7.70;71.30;;;;;;2330173;58;20094;-72
2022/03/03 12:01:08;;;;;;;;;;;7.70;71.00;;;;;;2330864;58;20074;-73
2022/03/03 12:03:57;;;;;;;;;;;7.70;71.30;;;;;;2330920;58;20078;-73
2022/03/03 12:06:34;;;;;;;;;;;7.70;71.00;;;;;;2330981;58;20078;-73
2022/03/03 12:09:14;;;;;;;;;;;7.80;70.80;;;;;;2330652;58;20081;-73
2022/03/03 12:11:41;;;;;;;;;;;7.80;70.40;;;;;;2331012;58;20197;-72
2022/03/03 12:14:26;;;;;;;;;;;7.80;70.10;;;;;;2330502;58;20085;-72
2022/03/03 12:16:53;;;;;;;;;;;7.80;70.00;;;;;;2330095;58;20078;-73
2022/03/03 12:25:50;;;;;;;;;;;7.80;69.80;;;;;;2296129;54;20356;-72
2022/03/03 12:28:17;;;;;;;;;;;8.10;70.20;;;;;;2298914;58;20076;-72
2022/03/03 12:30:44;;;;;;;;;;;8.10;70.20;;;;;;2304933;58;20060;-73
2022/03/03 12:33:19;;;;;;;;;;;8.20;70.50;;;;;;2324017;58;20067;-72
2022/03/03 12:35:46;;;;;;;;;;;8.10;70.30;;;;;;2467775;54;20307;-73
2022/03/03 12:38:13;;;;;;;;;;;8.20;70.40;;;;;;2276146;59;20323;-73
2022/03/03 12:40:39;;;;;;;;;;;8.20;70.40;;;;;;2515137;54;20060;-73
2022/03/03 12:43:12;;;;;;;;;;;8.10;70.10;;;;;;2300615;58;20937;-73
2022/03/03 12:45:39;;;;;;;;;;;8.10;69.90;;;;;;2538643;54;20107;-73
2022/03/03 12:48:06;;;;;;;;;;;8.10;69.80;;;;;;2393309;52;20086;-77
2022/03/03 12:50:33;;;;;;;;;;;8.20;69.50;;;;;;2355502;56;20049;-78
2022/03/03 12:53:01;;;;;;;;;;;8.10;69.30;;;;;;2378649;56;20156;-78
2022/03/03 12:55:32;;;;;;;;;;;8.10;69.40;;;;;;2631802;52;20057;-78
2022/03/03 12:57:59;;;;;;;;;;;8.10;69.40;;;;;;2379108;56;20147;-77
2022/03/03 13:00:26;;;;;;;;;;;8.10;69.50;;;;;;2379020;56;20120;-77
2022/03/03 13:02:53;;;;;;;;;;;8.10;69.60;;;;;;2377961;56;20126;-78
2022/03/03 13:05:29;;;;;;;;;;;8.20;70.00;;;;;;2379395;56;20065;-77
2022/03/03 13:07:56;;;;;;;;;;;8.20;70.10;;;;;;2633728;52;20062;-77
2022/03/03 13:10:23;;;;;;;;;;;8.20;70.40;;;;;;2632626;52;20370;-78
2022/03/03 13:12:52;;;;;;;;;;;8.30;70.50;;;;;;2378793;56;20300;-78
2022/03/03 13:15:26;;;;;;;;;;;8.30;70.40;;;;;;2633469;52;20326;-78
2022/03/03 13:17:59;;;;;;;;;;;8.40;70.20;;;;;;2633481;52;20148;-78
2022/03/03 13:20:30;;;;;;;;;;;8.50;70.10;;;;;;2633253;52;20132;-78
2022/03/03 13:22:56;;;;;;;;;;;8.50;69.20;;;;;;2633797;52;20093;-78
2022/03/03 13:25:25;;;;;;;;;;;8.50;68.10;;;;;;2378480;56;20118;-77
2022/03/03 13:27:52;;;;;;;;;;;8.60;68.20;;;;;;2379440;56;20105;-78
2022/03/03 13:30:18;;;;;;;;;;;8.50;68.00;;;;;;2377998;56;20122;-77
2022/03/03 13:32:45;;;;;;;;;;;8.60;68.20;;;;;;2633879;52;20088;-77
2022/03/03 13:35:12;;;;;;;;;;;8.50;68.30;;;;;;2632537;52;20077;-78
2022/03/03 13:37:39;;;;;;;;;;;8.60;68.00;;;;;;2378541;56;20363;-77
2022/03/03 13:40:12;;;;;;;;;;;8.60;67.70;;;;;;2377760;56;20454;-76
2022/03/03 13:42:39;;;;;;;;;;;8.60;67.70;;;;;;2378306;56;20069;-77
2022/03/03 13:45:07;;;;;;;;;;;8.60;68.60;;;;;;2379031;56;20148;-78
2022/03/03 13:47:38;;;;;;;;;;;8.60;67.50;;;;;;2379085;56;20372;-77
2022/03/03 13:50:06;;;;;;;;;;;8.60;66.90;;;;;;2378307;56;20104;-78
2022/03/03 13:52:34;;;;;;;;;;;8.50;67.00;;;;;;2633627;52;20092;-77
2022/03/03 13:55:02;;;;;;;;;;;8.50;67.20;;;;;;2378949;56;20057;-77
2022/03/03 13:57:34;;;;;;;;;;;8.50;67.60;;;;;;2379394;56;20159;-78
2022/03/03 14:00:01;;;;;;;;;;;8.50;68.30;;;;;;2632252;52;20054;-77
2022/03/03 14:02:28;;;;;;;;;;;8.40;67.30;;;;;;2632887;52;20172;-78
2022/03/03 14:04:58;;;;;;;;;;;8.40;67.30;;;;;;2378752;56;20125;-77
2022/03/03 14:07:28;;;;;;;;;;;8.40;67.30;;;;;;2633187;52;20129;-77
2022/03/03 14:09:55;;;;;;;;;;;8.40;67.70;;;;;;2378323;56;20085;-78
2022/03/03 14:12:22;;;;;;;;;;;8.50;67.90;;;;;;2631624;52;20074;-77
2022/03/03 14:14:49;;;;;;;;;;;8.50;67.80;;;;;;2633140;52;20125;-78
2022/03/03 14:17:15;;;;;;;;;;;8.50;67.70;;;;;;2631229;52;20336;-77
2022/03/03 14:19:43;;;;;;;;;;;8.50;67.50;;;;;;2379292;56;20604;-78
2022/03/03 14:22:10;;;;;;;;;;;8.50;67.20;;;;;;2379584;56;20113;-78
2022/03/03 14:24:38;;;;;;;;;;;8.50;67.40;;;;;;2379694;56;20094;-77
2022/03/03 14:27:05;;;;;;;;;;;8.50;67.90;;;;;;2379206;56;20113;-77
2022/03/03 14:29:31;;;;;;;;;;;8.60;68.10;;;;;;2379194;56;20129;-77
2022/03/03 14:31:58;;;;;;;;;;;8.60;67.70;;;;;;2379251;56;20077;-77
2022/03/03 14:34:24;;;;;;;;;;;8.60;67.50;;;;;;2378647;56;20077;-78
2022/03/03 14:36:51;;;;;;;;;;;8.60;67.60;;;;;;2633350;52;20069;-78
2022/03/03 14:39:17;;;;;;;;;;;8.60;67.60;;;;;;2632561;52;20105;-77
2022/03/03 14:41:44;;;;;;;;;;;8.60;67.00;;;;;;2377936;56;20069;-77
2022/03/03 14:44:11;;;;;;;;;;;8.60;66.90;;;;;;2631991;52;20143;-77